Time;durP1;ratioP1;P1;durP2;ratioP2;P2;SDS_P1;SDS_P2;PMS_P1;PMS_P2;Temp;Humidity;BMP_temperature;BMP_pressure;BME280_temperature;BME280_humidity;BME280_pressure;Samples;Min_cycle;Max_cycle;Signal;HPM_P1;HPM_P2
2021/01/24 00:00:50;;;;;;;1.53;1.30;;;16.60;33.10;;;;;;8394577;28;20493;-52
2021/01/24 00:04:50;;;;;;;1.97;1.40;;;16.60;33.10;;;;;;8393312;28;20055;-54
2021/01/24 00:08:51;;;;;;;2.13;1.67;;;16.60;33.10;;;;;;8398610;28;20255;-54
2021/01/24 00:12:51;;;;;;;1.40;1.30;;;16.60;33.10;;;;;;8392295;28;20044;-53
2021/01/24 00:16:52;;;;;;;1.37;1.23;;;16.60;33.10;;;;;;8393920;28;20054;-57
2021/01/24 00:20:52;;;;;;;2.67;1.40;;;16.60;33.10;;;;;;8393004;28;20401;-54
2021/01/24 00:24:53;;;;;;;1.50;1.20;;;16.60;33.10;;;;;;8396476;27;20056;-54
2021/01/24 00:28:54;;;;;;;1.90;1.20;;;16.50;33.10;;;;;;8393646;28;20063;-54
2021/01/24 00:32:54;;;;;;;1.57;1.30;;;16.60;33.60;;;;;;8393288;28;20060;-54
2021/01/24 00:36:55;;;;;;;1.93;1.40;;;16.60;33.10;;;;;;8391696;27;20028;-54
2021/01/24 00:40:56;;;;;;;1.47;1.33;;;16.50;33.00;;;;;;8393370;28;20085;-54
2021/01/24 00:44:56;;;;;;;1.77;1.33;;;16.60;33.10;;;;;;8397439;28;20036;-54
2021/01/24 00:48:57;;;;;;;1.33;1.20;;;16.50;33.00;;;;;;8391476;28;20043;-54
2021/01/24 00:52:57;;;;;;;1.53;1.10;;;16.50;33.00;;;;;;8392743;28;20060;-54
2021/01/24 00:56:58;;;;;;;1.33;1.23;;;16.60;33.10;;;;;;8392709;28;20032;-54
2021/01/24 01:00:59;;;;;;;1.30;1.00;;;16.50;33.00;;;;;;8395158;28;20528;-55
2021/01/24 01:05:00;;;;;;;1.27;1.10;;;16.50;33.00;;;;;;8392630;28;20037;-54
2021/01/24 01:09:00;;;;;;;1.57;1.10;;;16.50;33.10;;;;;;8392487;28;20043;-54
2021/01/24 01:13:01;;;;;;;1.23;1.13;;;16.50;33.10;;;;;;8390307;28;20079;-54
2021/01/24 01:17:01;;;;;;;1.30;1.20;;;16.50;33.00;;;;;;8394024;28;20028;-54
2021/01/24 01:21:02;;;;;;;1.63;1.27;;;16.50;33.00;;;;;;8427222;28;20039;-53
2021/01/24 01:25:03;;;;;;;1.60;1.07;;;16.50;33.00;;;;;;8399804;28;20522;-53
2021/01/24 01:29:04;;;;;;;1.10;1.00;;;16.50;33.00;;;;;;8391827;28;20090;-54
2021/01/24 01:33:04;;;;;;;1.43;0.97;;;16.50;33.10;;;;;;8391534;28;20051;-53
2021/01/24 01:37:05;;;;;;;1.63;1.13;;;16.50;33.00;;;;;;8394532;28;20060;-53
2021/01/24 01:41:05;;;;;;;1.67;1.13;;;16.50;33.00;;;;;;8391472;28;20032;-54
2021/01/24 01:45:07;;;;;;;1.07;0.97;;;16.50;33.10;;;;;;8407905;28;20036;-54
2021/01/24 01:49:08;;;;;;;1.30;1.13;;;16.50;33.00;;;;;;8415817;28;20055;-54
2021/01/24 01:53:08;;;;;;;1.30;0.87;;;16.50;33.00;;;;;;8395575;28;20148;-55
2021/01/24 01:57:09;;;;;;;1.23;1.13;;;16.50;33.00;;;;;;8391093;28;20040;-54
2021/01/24 02:01:24;;;;;;;1.43;0.90;;;16.50;33.00;;;;;;8389565;28;20044;-54
2021/01/24 02:05:52;;;;;;;1.50;1.10;;;16.50;33.00;;;;;;8391145;28;20044;-54
2021/01/24 02:09:58;;;;;;;1.08;1.00;;;16.50;33.00;;;;;;8389289;27;20037;-54
2021/01/24 02:14:12;;;;;;;1.20;0.80;;;16.40;32.90;;;;;;8395307;28;20029;-53
2021/01/24 02:18:14;;;;;;;1.17;0.80;;;16.40;33.00;;;;;;8392069;28;20036;-54
2021/01/24 02:22:16;;;;;;;1.10;1.00;;;16.50;32.90;;;;;;8389273;27;20040;-54
2021/01/24 02:26:47;;;;;;;1.27;1.10;;;16.50;33.00;;;;;;8391101;28;20401;-55
2021/01/24 02:30:50;;;;;;;2.30;0.80;;;16.40;33.00;;;;;;8390733;28;20051;-54
2021/01/24 02:34:52;;;;;;;1.50;1.00;;;16.40;32.90;;;;;;8393546;27;20033;-54
2021/01/24 02:38:54;;;;;;;1.00;0.73;;;16.40;32.90;;;;;;8390483;28;20040;-54
2021/01/24 02:42:55;;;;;;;0.70;0.70;;;16.40;32.80;;;;;;8389441;28;20037;-54
2021/01/24 02:46:57;;;;;;;0.70;0.70;;;16.40;32.80;;;;;;8396714;28;20032;-54
2021/01/24 02:50:57;;;;;;;0.82;0.80;;;16.40;32.90;;;;;;8396542;28;20098;-54
2021/01/24 02:54:58;;;;;;;1.07;0.90;;;16.40;32.80;;;;;;8399034;27;20494;-54
2021/01/24 02:59:00;;;;;;;1.10;1.00;;;16.40;32.70;;;;;;8421774;28;20486;-54
2021/01/24 03:03:01;;;;;;;0.90;0.80;;;16.40;32.70;;;;;;8428633;28;20035;-54
2021/01/24 03:07:02;;;;;;;1.20;1.10;;;16.40;32.70;;;;;;8421932;28;20036;-54
2021/01/24 03:11:05;;;;;;;1.05;0.90;;;16.40;32.70;;;;;;8400533;28;20501;-54
2021/01/24 03:15:08;;;;;;;1.58;0.98;;;16.40;32.80;;;;;;8395778;28;20036;-54
2021/01/24 03:19:11;;;;;;;1.23;0.80;;;16.40;32.70;;;;;;8414738;28;20177;-54
2021/01/24 03:23:12;;;;;;;0.88;0.70;;;16.40;32.80;;;;;;8417738;27;20032;-54
2021/01/24 03:27:13;;;;;;;1.00;0.75;;;16.40;32.70;;;;;;8395497;28;20032;-55
2021/01/24 03:31:13;;;;;;;0.90;0.77;;;16.40;32.70;;;;;;8398135;28;20033;-54
2021/01/24 03:35:14;;;;;;;0.97;0.70;;;16.40;32.70;;;;;;8395675;28;20599;-54
2021/01/24 03:39:15;;;;;;;0.87;0.87;;;16.30;32.60;;;;;;8395619;28;20039;-54
2021/01/24 03:43:16;;;;;;;0.80;0.70;;;16.40;32.60;;;;;;8393482;28;20040;-54
2021/01/24 03:47:16;;;;;;;0.93;0.70;;;16.40;32.60;;;;;;8399354;28;20025;-54
2021/01/24 03:51:17;;;;;;;0.73;0.60;;;16.40;32.60;;;;;;8394854;28;20048;-54
2021/01/24 03:55:17;;;;;;;0.73;0.67;;;16.30;32.70;;;;;;8411078;28;20492;-54
2021/01/24 03:59:18;;;;;;;1.00;0.90;;;16.30;32.60;;;;;;8419076;28;20054;-54
2021/01/24 04:03:18;;;;;;;0.60;0.60;;;16.30;32.60;;;;;;8399030;28;20043;-54
2021/01/24 04:07:19;;;;;;;0.73;0.70;;;16.30;32.50;;;;;;8393259;28;20032;-55
2021/01/24 04:11:20;;;;;;;1.37;0.90;;;16.30;32.50;;;;;;8394540;28;20103;-54
2021/01/24 04:15:20;;;;;;;0.83;0.70;;;16.30;32.60;;;;;;8394160;28;20501;-54
2021/01/24 04:19:21;;;;;;;0.60;0.60;;;16.30;32.60;;;;;;8394132;27;20040;-54
2021/01/24 04:23:21;;;;;;;0.60;0.60;;;16.30;32.50;;;;;;8431622;28;20036;-54
2021/01/24 04:27:22;;;;;;;0.90;0.80;;;16.30;32.70;;;;;;8401031;28;20052;-54
2021/01/24 04:31:23;;;;;;;0.67;0.67;;;16.40;32.70;;;;;;8392127;28;20052;-54
2021/01/24 04:35:23;;;;;;;0.60;0.60;;;16.40;32.70;;;;;;8393630;28;20035;-54
2021/01/24 04:39:24;;;;;;;0.77;0.70;;;16.40;32.70;;;;;;8397488;28;20107;-54
2021/01/24 04:43:26;;;;;;;0.80;0.70;;;16.40;32.80;;;;;;8390837;28;20115;-55
2021/01/24 04:47:27;;;;;;;0.60;0.60;;;16.40;32.90;;;;;;8412406;27;20097;-55
2021/01/24 04:51:27;;;;;;;0.85;0.60;;;16.40;32.80;;;;;;8415890;28;20040;-55
2021/01/24 04:55:30;;;;;;;0.80;0.60;;;16.40;32.80;;;;;;8393544;27;20029;-55
2021/01/24 04:59:30;;;;;;;0.73;0.70;;;16.40;32.80;;;;;;8395931;28;20116;-54
2021/01/24 05:03:31;;;;;;;0.80;0.80;;;16.40;32.80;;;;;;8392755;28;20028;-54
2021/01/24 05:07:31;;;;;;;0.70;0.70;;;16.50;32.90;;;;;;8390835;28;20040;-54
2021/01/24 05:11:32;;;;;;;0.80;0.70;;;16.50;32.80;;;;;;8392447;27;20028;-55
2021/01/24 05:15:35;;;;;;;0.60;0.60;;;16.50;32.90;;;;;;8396517;28;20064;-54
2021/01/24 05:19:36;;;;;;;0.60;0.60;;;16.50;32.70;;;;;;8390433;28;20071;-55
2021/01/24 05:23:37;;;;;;;0.50;0.50;;;16.50;32.70;;;;;;8391850;27;20032;-55
2021/01/24 05:27:37;;;;;;;1.35;0.80;;;16.50;32.60;;;;;;8391807;28;20385;-54
2021/01/24 05:31:44;;;;;;;1.30;0.50;;;16.50;32.50;;;;;;8394529;27;20036;-55
2021/01/24 05:35:50;;;;;;;0.57;0.57;;;16.50;32.40;;;;;;8391951;28;20043;-54
2021/01/24 05:39:53;;;;;;;1.02;0.70;;;16.50;32.40;;;;;;8390045;28;20047;-50
2021/01/24 05:43:53;;;;;;;0.90;0.60;;;16.50;32.30;;;;;;8391614;28;20059;-55
2021/01/24 05:47:54;;;;;;;0.60;0.50;;;16.50;32.40;;;;;;8391360;28;20497;-53
2021/01/24 05:52:05;;;;;;;0.60;0.50;;;16.40;32.30;;;;;;8393382;27;20071;-54
2021/01/24 05:56:10;;;;;;;0.63;0.63;;;16.40;32.30;;;;;;8391259;28;20043;-55
2021/01/24 06:00:11;;;;;;;0.60;0.60;;;16.40;32.30;;;;;;8390712;28;20037;-54
2021/01/24 06:04:11;;;;;;;1.80;0.87;;;16.40;32.30;;;;;;8388925;28;20083;-54
2021/01/24 06:08:15;;;;;;;0.70;0.70;;;16.30;32.40;;;;;;8395017;28;20271;-54
2021/01/24 06:12:16;;;;;;;1.05;0.77;;;16.30;32.30;;;;;;8391609;28;20106;-54
2021/01/24 06:16:29;;;;;;;0.70;0.70;;;16.40;32.30;;;;;;8388583;27;20082;-55
2021/01/24 06:20:41;;;;;;;0.68;0.50;;;16.30;32.30;;;;;;8395483;28;20519;-54
2021/01/24 06:24:48;;;;;;;0.70;0.50;;;16.30;32.30;;;;;;8397664;28;20031;-54
2021/01/24 06:28:50;;;;;;;0.68;0.50;;;16.30;32.30;;;;;;8400297;28;20103;-55
2021/01/24 06:32:51;;;;;;;0.80;0.70;;;16.30;32.40;;;;;;8428555;27;20094;-54
2021/01/24 06:37:27;;;;;;;0.60;0.60;;;16.30;32.40;;;;;;8407459;28;20028;-52
2021/01/24 06:41:45;;;;;;;0.70;0.50;;;16.30;32.40;;;;;;8396195;28;20385;-55
2021/01/24 06:45:46;;;;;;;1.00;0.88;;;16.30;32.60;;;;;;8405222;28;20030;-54
2021/01/24 06:49:46;;;;;;;0.93;0.70;;;16.30;32.60;;;;;;8432474;28;20025;-55
2021/01/24 06:53:47;;;;;;;0.80;0.70;;;16.30;32.50;;;;;;8397080;28;20132;-56
2021/01/24 06:57:47;;;;;;;0.87;0.70;;;16.30;32.60;;;;;;8397202;28;20389;-55
2021/01/24 07:01:48;;;;;;;0.60;0.60;;;16.30;32.50;;;;;;8394837;27;20029;-55
2021/01/24 07:05:49;;;;;;;0.50;0.50;;;16.40;32.70;;;;;;8396220;28;20102;-55
2021/01/24 07:09:49;;;;;;;1.27;0.67;;;16.40;32.60;;;;;;8400558;28;20592;-53
2021/01/24 07:13:50;;;;;;;1.23;0.80;;;16.40;32.70;;;;;;8394197;28;20048;-54
2021/01/24 07:17:58;;;;;;;1.47;1.20;;;16.40;32.40;;;;;;8395898;28;20039;-53
2021/01/24 07:21:59;;;;;;;3.47;1.88;;;16.50;32.60;;;;;;8394353;28;20036;-55
2021/01/24 07:26:03;;;;;;;3.23;2.23;;;16.50;32.30;;;;;;8399933;28;20027;-54
2021/01/24 07:30:05;;;;;;;3.97;2.15;;;16.50;32.30;;;;;;8394835;28;20259;-54
2021/01/24 07:34:07;;;;;;;2.47;1.70;;;16.50;32.20;;;;;;8393794;28;20502;-55
2021/01/24 07:38:07;;;;;;;;;;;16.50;32.20;;;;;;8395407;28;20064;-55
2021/01/24 07:42:08;;;;;;;2.85;2.05;;;16.40;32.00;;;;;;8395155;28;20332;-54
2021/01/24 07:46:09;;;;;;;3.87;2.20;;;16.40;32.10;;;;;;8397674;28;20055;-56
2021/01/24 07:50:10;;;;;;;2.27;1.77;;;16.40;32.00;;;;;;8419324;28;20032;-54
2021/01/24 07:54:11;;;;;;;3.58;2.08;;;16.40;32.00;;;;;;8412342;28;20462;-54
2021/01/24 07:58:12;;;;;;;4.20;2.10;;;16.40;32.10;;;;;;8398607;28;20039;-55
2021/01/24 08:02:12;;;;;;;2.47;1.77;;;16.30;32.00;;;;;;8432241;27;20481;-54
2021/01/24 08:06:13;;;;;;;2.87;1.90;;;16.30;32.00;;;;;;8398417;28;20037;-54
2021/01/24 08:10:14;;;;;;;3.30;2.43;;;16.30;32.00;;;;;;8392661;28;20040;-54
2021/01/24 08:14:15;;;;;;;3.35;1.83;;;16.30;32.00;;;;;;8403202;28;20043;-54
2021/01/24 08:18:16;;;;;;;1.90;1.70;;;16.40;31.90;;;;;;8431009;28;20032;-54
2021/01/24 08:22:18;;;;;;;3.63;2.10;;;16.30;31.90;;;;;;8393197;27;20044;-54
2021/01/24 08:26:20;;;;;;;2.63;1.85;;;16.30;32.00;;;;;;8392907;27;20120;-55
2021/01/24 08:30:21;;;;;;;2.85;2.00;;;16.30;32.00;;;;;;8393645;28;20036;-54
2021/01/24 08:34:22;;;;;;;1.90;1.70;;;16.30;32.00;;;;;;8391652;28;20086;-54
2021/01/24 08:38:24;;;;;;;2.07;1.60;;;16.30;32.00;;;;;;8397366;28;20600;-54
2021/01/24 08:42:40;;;;;;;2.03;1.65;;;16.30;32.10;;;;;;8418849;27;20119;-55
2021/01/24 08:46:47;;;;;;;1.55;1.30;;;16.30;32.20;;;;;;8404531;28;20035;-55
2021/01/24 08:50:48;;;;;;;2.15;1.60;;;16.30;32.10;;;;;;8393039;28;20049;-55
2021/01/24 08:55:00;;;;;;;1.90;1.67;;;16.30;32.20;;;;;;8392862;28;20043;-54
2021/01/24 08:59:16;;;;;;;1.85;1.58;;;16.30;32.70;;;;;;8395612;28;20503;-54
2021/01/24 09:03:23;;;;;;;1.60;1.50;;;16.40;32.30;;;;;;8392068;28;20043;-54
2021/01/24 09:07:33;;;;;;;1.75;1.35;;;16.40;32.30;;;;;;8391705;27;20134;-54
2021/01/24 09:11:41;;;;;;;2.28;1.65;;;16.40;32.20;;;;;;8392688;28;20044;-54
2021/01/24 09:15:42;;;;;;;1.95;1.50;;;16.50;32.20;;;;;;8391892;28;20036;-54
2021/01/24 09:19:44;;;;;;;1.60;1.50;;;16.50;32.20;;;;;;8394984;28;20033;-55
2021/01/24 09:23:45;;;;;;;2.17;1.45;;;16.50;32.10;;;;;;8391739;28;20090;-55
2021/01/24 09:27:45;;;;;;;2.40;1.60;;;16.50;32.10;;;;;;8391725;28;20494;-54
2021/01/24 09:31:46;;;;;;;2.23;1.57;;;16.50;32.00;;;;;;8389762;28;20051;-54
2021/01/24 09:35:47;;;;;;;2.67;1.53;;;16.50;31.90;;;;;;8396067;28;20032;-54
2021/01/24 09:39:47;;;;;;;1.90;1.40;;;16.50;31.80;;;;;;8391387;28;20040;-53
2021/01/24 09:43:48;;;;;;;3.23;1.70;;;16.50;31.70;;;;;;8389618;27;20041;-54
2021/01/24 09:47:48;;;;;;;1.83;1.60;;;16.50;31.70;;;;;;8391310;28;20094;-54
2021/01/24 09:51:49;;;;;;;2.17;1.67;;;16.50;31.60;;;;;;8395203;28;20040;-53
2021/01/24 09:55:49;;;;;;;2.40;1.83;;;16.40;31.60;;;;;;8389839;28;20132;-54
2021/01/24 09:59:50;;;;;;;1.60;1.30;;;16.40;31.60;;;;;;8392135;27;20033;-56
2021/01/24 10:03:51;;;;;;;1.90;1.50;;;16.40;31.60;;;;;;8389444;28;20037;-52
2021/01/24 10:07:51;;;;;;;2.03;1.58;;;16.40;31.60;;;;;;8390913;28;20048;-54
2021/01/24 10:11:52;;;;;;;1.87;1.43;;;16.40;31.60;;;;;;8395491;28;20051;-53
2021/01/24 10:15:53;;;;;;;1.70;1.50;;;16.40;31.70;;;;;;8389348;28;20123;-53
2021/01/24 10:19:53;;;;;;;1.97;1.40;;;16.40;31.60;;;;;;8391322;28;20037;-55
2021/01/24 10:23:54;;;;;;;1.40;1.10;;;16.30;31.60;;;;;;8390795;28;20583;-55
2021/01/24 10:27:54;;;;;;;1.97;1.50;;;16.30;31.60;;;;;;8393236;27;20028;-55
2021/01/24 10:31:55;;;;;;;1.40;1.23;;;16.30;31.60;;;;;;8390374;27;20052;-53
2021/01/24 10:35:56;;;;;;;1.20;1.10;;;16.30;31.60;;;;;;8391023;28;20051;-54
2021/01/24 10:39:56;;;;;;;1.80;1.60;;;16.30;31.70;;;;;;8389313;28;20106;-54
2021/01/24 10:43:59;;;;;;;2.20;1.63;;;16.40;31.90;;;;;;8391530;28;20040;-54
2021/01/24 10:48:00;;;;;;;1.30;1.20;;;16.30;31.90;;;;;;8393883;28;20036;-54
2021/01/24 10:52:01;;;;;;;1.48;1.35;;;16.40;31.80;;;;;;8388614;27;20143;-53
2021/01/24 10:56:02;;;;;;;2.23;1.50;;;16.40;31.90;;;;;;8390084;28;20040;-54
2021/01/24 11:00:04;;;;;;;2.00;1.40;;;16.40;31.80;;;;;;8390054;28;20087;-56
2021/01/24 11:04:05;;;;;;;1.30;1.20;;;16.40;31.80;;;;;;8393589;28;20059;-53
2021/01/24 11:08:05;;;;;;;1.73;1.20;;;16.50;31.80;;;;;;8396355;28;20040;-54
2021/01/24 11:12:06;;;;;;;1.70;1.47;;;16.50;31.80;;;;;;8395994;28;20558;-54
2021/01/24 11:16:06;;;;;;;1.30;1.20;;;16.50;31.80;;;;;;8394568;28;20035;-54
2021/01/24 11:20:08;;;;;;;1.80;1.37;;;16.50;31.80;;;;;;8400098;28;20028;-54
2021/01/24 11:24:09;;;;;;;1.77;1.17;;;16.60;31.70;;;;;;8395645;28;20106;-54
2021/01/24 11:28:11;;;;;;;2.27;1.47;;;16.60;31.70;;;;;;8393762;28;20568;-54
2021/01/24 11:32:12;;;;;;;1.83;1.30;;;16.60;31.50;;;;;;8395846;28;20048;-53
2021/01/24 11:36:13;;;;;;;1.90;1.40;;;16.60;31.50;;;;;;8395696;28;20047;-52
2021/01/24 11:40:14;;;;;;;2.07;1.67;;;16.60;31.40;;;;;;8398087;28;20124;-54
2021/01/24 11:44:15;;;;;;;1.48;1.25;;;16.50;31.30;;;;;;8395329;28;20042;-53
2021/01/24 11:48:15;;;;;;;1.50;1.33;;;16.60;31.40;;;;;;8394730;28;20039;-53
2021/01/24 11:52:16;;;;;;;2.47;1.20;;;16.50;31.30;;;;;;8393325;28;20037;-54
2021/01/24 11:56:16;;;;;;;1.73;1.20;;;16.50;31.20;;;;;;8398982;27;20370;-54
2021/01/24 12:00:18;;;;;;;1.63;1.27;;;16.50;31.20;;;;;;8394816;28;20170;-54
2021/01/24 12:04:18;;;;;;;1.10;1.00;;;16.50;31.20;;;;;;8392920;28;20051;-55
2021/01/24 12:08:19;;;;;;;2.20;1.33;;;16.40;31.20;;;;;;8403643;27;20036;-54
2021/01/24 12:12:20;;;;;;;1.40;1.30;;;16.40;31.20;;;;;;8430456;28;20131;-54
2021/01/24 12:16:21;;;;;;;2.20;1.27;;;16.40;31.30;;;;;;8394585;28;20032;-54
2021/01/24 12:20:22;;;;;;;1.20;1.00;;;16.40;31.30;;;;;;8394280;28;20036;-54
2021/01/24 12:24:22;;;;;;;1.30;1.20;;;16.40;31.30;;;;;;8394160;28;20028;-55
2021/01/24 12:28:23;;;;;;;1.87;1.27;;;16.30;31.30;;;;;;8392246;28;20086;-55
2021/01/24 12:32:24;;;;;;;1.17;1.07;;;16.30;31.40;;;;;;8397881;27;20431;-54
2021/01/24 12:36:24;;;;;;;1.47;1.37;;;16.30;31.30;;;;;;8420227;28;20031;-55
2021/01/24 12:40:25;;;;;;;1.37;1.10;;;16.30;31.40;;;;;;8407998;28;20074;-55
2021/01/24 12:44:25;;;;;;;1.67;0.90;;;16.30;31.30;;;;;;8393400;28;20021;-54
2021/01/24 12:48:26;;;;;;;1.87;1.17;;;16.40;31.40;;;;;;8397304;28;20037;-55
2021/01/24 12:52:26;;;;;;;1.47;1.17;;;16.40;31.30;;;;;;8391224;28;20451;-53
2021/01/24 12:56:27;;;;;;;2.27;1.30;;;16.40;31.40;;;;;;8392940;28;20056;-54
2021/01/24 13:00:27;;;;;;;3.90;1.10;;;16.40;31.40;;;;;;8392946;28;20382;-54
2021/01/24 13:04:28;;;;;;;1.23;0.90;;;16.50;31.40;;;;;;8390942;28;20474;-55
2021/01/24 13:08:29;;;;;;;0.93;0.80;;;16.50;31.40;;;;;;8397130;27;20521;-53
2021/01/24 13:12:30;;;;;;;1.85;1.05;;;16.50;31.30;;;;;;8392503;28;20468;-55
2021/01/24 13:16:30;;;;;;;1.23;1.10;;;16.50;31.80;;;;;;8390255;27;20032;-53
2021/01/24 13:20:31;;;;;;;3.28;1.42;;;16.60;31.30;;;;;;8396698;28;20044;-55
2021/01/24 13:24:33;;;;;;;1.33;1.00;;;16.60;31.10;;;;;;8430010;28;20024;-54
2021/01/24 13:28:33;;;;;;;1.40;1.00;;;16.60;31.10;;;;;;8422051;28;20043;-55
2021/01/24 13:32:34;;;;;;;2.27;1.30;;;16.60;31.10;;;;;;8406724;28;20045;-55
2021/01/24 13:36:34;;;;;;;2.13;1.80;;;16.60;31.00;;;;;;8392324;28;20127;-55
2021/01/24 13:40:35;;;;;;;1.47;1.23;;;16.60;31.00;;;;;;8393737;28;20020;-55
2021/01/24 13:44:38;;;;;;;2.40;1.63;;;16.60;31.00;;;;;;8391697;28;20245;-52
2021/01/24 13:48:38;;;;;;;1.77;1.23;;;16.60;31.00;;;;;;8391038;28;20033;-54
2021/01/24 13:52:39;;;;;;;1.37;1.10;;;16.50;31.00;;;;;;8401860;27;20377;-54
2021/01/24 13:56:39;;;;;;;2.40;1.00;;;16.50;30.90;;;;;;8422331;27;23169;-54
2021/01/24 14:00:40;;;;;;;1.40;1.20;;;16.50;30.90;;;;;;8395173;28;20036;-55
2021/01/24 14:04:43;;;;;;;1.00;0.87;;;16.50;31.50;;;;;;8389912;28;20041;-55
2021/01/24 14:08:44;;;;;;;1.50;1.17;;;16.50;31.00;;;;;;8406828;27;20036;-55
2021/01/24 14:12:44;;;;;;;1.53;1.00;;;16.50;31.00;;;;;;8417398;27;20557;-55
2021/01/24 14:16:45;;;;;;;2.20;1.50;;;16.50;31.00;;;;;;8393799;28;20470;-55
2021/01/24 14:20:46;;;;;;;1.90;1.30;;;16.50;30.90;;;;;;8391290;28;20128;-54
2021/01/24 14:24:46;;;;;;;0.90;0.90;;;16.50;31.50;;;;;;8391140;28;20394;-54
2021/01/24 14:28:47;;;;;;;1.53;1.20;;;16.40;30.90;;;;;;8389324;27;20482;-54
2021/01/24 14:32:48;;;;;;;2.50;1.20;;;16.40;31.00;;;;;;8393048;27;20051;-54
2021/01/24 14:36:49;;;;;;;1.77;1.10;;;16.40;30.90;;;;;;8426471;27;20378;-54
2021/01/24 14:40:49;;;;;;;1.07;0.90;;;16.40;31.00;;;;;;8402037;28;20025;-54
2021/01/24 14:44:50;;;;;;;1.50;1.00;;;16.40;31.10;;;;;;8397454;28;20025;-54
2021/01/24 14:48:50;;;;;;;1.37;1.20;;;16.40;31.10;;;;;;8395905;28;20432;-50
2021/01/24 14:52:51;;;;;;;1.77;1.40;;;16.40;31.20;;;;;;8400260;28;20072;-55
2021/01/24 14:56:51;;;;;;;1.33;1.20;;;16.40;31.20;;;;;;8396547;27;20024;-54
2021/01/24 15:00:52;;;;;;;2.43;1.30;;;16.40;31.20;;;;;;8394670;27;20163;-53
2021/01/24 15:04:53;;;;;;;3.88;1.40;;;16.50;31.20;;;;;;8396295;28;20086;-53
2021/01/24 15:08:53;;;;;;;1.70;1.13;;;16.50;31.20;;;;;;8400798;27;20044;-55
2021/01/24 15:12:54;;;;;;;1.97;1.30;;;16.50;31.10;;;;;;8394111;27;20094;-54
2021/01/24 15:16:54;;;;;;;1.47;1.10;;;16.60;31.20;;;;;;8395866;28;20020;-55
2021/01/24 15:20:55;;;;;;;2.70;1.20;;;16.60;31.20;;;;;;8395930;28;20032;-53
2021/01/24 15:24:56;;;;;;;1.40;1.30;;;16.50;31.10;;;;;;8393741;27;20041;-54
2021/01/24 15:28:56;;;;;;;1.83;1.20;;;16.60;31.10;;;;;;8400003;28;20032;-53
2021/01/24 15:32:57;;;;;;;4.97;1.50;;;16.60;31.10;;;;;;8395752;27;20048;-54
2021/01/24 15:36:57;;;;;;;1.80;1.70;;;16.60;31.00;;;;;;8394136;27;20082;-55
2021/01/24 15:40:58;;;;;;;3.53;1.80;;;16.60;31.00;;;;;;8395615;28;20086;-54
2021/01/24 15:44:58;;;;;;;2.17;1.37;;;16.60;31.00;;;;;;8399665;27;20032;-53
2021/01/24 15:48:59;;;;;;;2.27;1.70;;;16.50;30.90;;;;;;8393346;28;20086;-54
2021/01/24 15:53:00;;;;;;;1.33;1.23;;;16.50;30.90;;;;;;8412272;27;20454;-54
2021/01/24 15:57:00;;;;;;;2.27;1.43;;;16.50;30.90;;;;;;8419376;27;20051;-56
2021/01/24 16:01:01;;;;;;;2.67;1.33;;;16.50;30.90;;;;;;8397409;27;20068;-55
2021/01/24 16:05:02;;;;;;;1.90;1.40;;;16.50;30.90;;;;;;8395395;28;20417;-54
2021/01/24 16:09:03;;;;;;;1.73;1.50;;;16.40;30.90;;;;;;8394821;28;20040;-55
2021/01/24 16:13:05;;;;;;;1.73;1.30;;;16.40;31.00;;;;;;8392362;28;20049;-54
2021/01/24 16:17:06;;;;;;;;;;;16.40;30.90;;;;;;8394597;28;20507;-55
2021/01/24 16:21:07;;;;;;;2.22;1.30;;;16.40;31.00;;;;;;8398241;28;19920;-55
2021/01/24 16:25:08;;;;;;;2.17;1.45;;;16.40;31.00;;;;;;8392138;28;20033;-54
2021/01/24 16:29:08;;;;;;;2.50;1.47;;;16.30;31.00;;;;;;8394479;28;20036;-54
2021/01/24 16:33:09;;;;;;;1.83;1.30;;;16.30;31.00;;;;;;8393133;28;20055;-54
2021/01/24 16:37:10;;;;;;;2.17;1.43;;;16.30;31.10;;;;;;8396028;28;20237;-54
2021/01/24 16:41:10;;;;;;;1.77;1.47;;;16.30;31.10;;;;;;8393418;28;20094;-54
2021/01/24 16:45:11;;;;;;;2.30;1.43;;;16.30;31.10;;;;;;8392967;28;20052;-54
2021/01/24 16:49:12;;;;;;;2.77;1.60;;;16.30;31.80;;;;;;8391945;28;20056;-54
2021/01/24 16:53:13;;;;;;;2.03;1.50;;;16.30;31.30;;;;;;8394842;28;20102;-55
2021/01/24 16:57:13;;;;;;;2.37;1.47;;;16.30;31.20;;;;;;8395844;28;20129;-54
2021/01/24 17:01:16;;;;;;;1.67;1.23;;;16.30;31.20;;;;;;8390606;28;20388;-54
2021/01/24 17:05:17;;;;;;;3.13;1.40;;;16.40;31.30;;;;;;8392544;27;20029;-54
2021/01/24 17:09:17;;;;;;;2.60;1.23;;;16.40;31.30;;;;;;8392519;28;20573;-55
2021/01/24 17:13:18;;;;;;;2.17;1.60;;;16.40;31.10;;;;;;8394758;28;20147;-54
2021/01/24 17:17:18;;;;;;;2.03;1.47;;;16.50;31.20;;;;;;8392373;28;20392;-53
2021/01/24 17:21:19;;;;;;;1.80;1.40;;;16.50;31.10;;;;;;8392085;28;20025;-54
2021/01/24 17:25:20;;;;;;;2.33;1.40;;;16.50;31.60;;;;;;8390289;28;20045;-54
2021/01/24 17:29:20;;;;;;;2.73;1.40;;;16.60;31.10;;;;;;8396241;28;20041;-54
2021/01/24 17:33:21;;;;;;;1.60;1.27;;;16.50;31.00;;;;;;8392177;28;20052;-55
2021/01/24 17:37:21;;;;;;;2.10;1.30;;;16.50;30.90;;;;;;8389921;28;20513;-53
2021/01/24 17:41:22;;;;;;;2.63;1.60;;;16.50;30.90;;;;;;8391429;28;20127;-55
2021/01/24 17:45:23;;;;;;;2.10;1.50;;;16.50;30.90;;;;;;8392502;28;20106;-55
2021/01/24 17:49:23;;;;;;;2.27;1.73;;;16.50;30.80;;;;;;8427853;28;20041;-54
2021/01/24 17:53:25;;;;;;;1.70;1.50;;;16.50;30.80;;;;;;8399685;28;20068;-54
2021/01/24 17:57:25;;;;;;;2.05;1.75;;;16.50;30.90;;;;;;8391347;28;20033;-55
2021/01/24 18:01:26;;;;;;;2.60;2.00;;;16.40;30.90;;;;;;8389933;27;20512;-54
2021/01/24 18:05:26;;;;;;;3.67;1.80;;;16.40;30.90;;;;;;8396975;28;20119;-52
2021/01/24 18:09:27;;;;;;;2.03;1.70;;;16.40;30.90;;;;;;8392581;28;20392;-54
2021/01/24 18:13:27;;;;;;;3.60;1.80;;;16.40;30.90;;;;;;8392531;28;20040;-54
2021/01/24 18:17:28;;;;;;;2.37;1.70;;;16.40;31.00;;;;;;8402752;28;20491;-54
2021/01/24 18:21:29;;;;;;;2.83;1.80;;;16.30;30.90;;;;;;8406557;28;20124;-53
2021/01/24 18:25:30;;;;;;;3.40;1.90;;;16.30;30.90;;;;;;8400359;27;20028;-55
2021/01/24 18:29:31;;;;;;;2.03;1.63;;;16.30;30.90;;;;;;8402242;28;20025;-52
2021/01/24 18:33:31;;;;;;;2.55;1.70;;;16.30;31.00;;;;;;8401740;27;20114;-52
2021/01/24 18:37:32;;;;;;;2.90;1.77;;;16.30;31.00;;;;;;8400433;27;20120;-54
2021/01/24 18:41:32;;;;;;;3.37;1.97;;;16.20;31.00;;;;;;8405903;28;20036;-54
2021/01/24 18:45:34;;;;;;;3.57;2.33;;;16.20;31.10;;;;;;8427228;28;20085;-54
2021/01/24 18:49:35;;;;;;;;;;;16.20;31.10;;;;;;8417530;28;20025;-54
2021/01/24 18:53:35;;;;;;;2.92;2.20;;;16.20;31.10;;;;;;8401679;28;19921;-54
2021/01/24 18:57:36;;;;;;;2.90;2.10;;;16.30;31.20;;;;;;8405733;28;20082;-54
2021/01/24 19:01:36;;;;;;;3.10;2.10;;;16.30;31.20;;;;;;8429039;28;20089;-54
2021/01/24 19:05:37;;;;;;;1.83;1.60;;;16.30;31.20;;;;;;8414996;28;20037;-54
2021/01/24 19:09:37;;;;;;;2.77;2.07;;;16.30;31.80;;;;;;8401314;28;20040;-54
2021/01/24 19:13:38;;;;;;;3.40;2.10;;;16.30;31.10;;;;;;8401440;28;20037;-54
2021/01/24 19:17:39;;;;;;;3.08;2.00;;;16.40;31.10;;;;;;8404913;27;20381;-55
2021/01/24 19:21:39;;;;;;;4.23;2.43;;;16.40;31.60;;;;;;8401186;28;20040;-54
2021/01/24 19:25:40;;;;;;;3.87;2.47;;;16.40;31.00;;;;;;8396545;28;20033;-53
2021/01/24 19:29:41;;;;;;;3.07;2.37;;;16.40;31.00;;;;;;8395535;28;20434;-54
2021/01/24 19:33:41;;;;;;;5.93;2.60;;;16.50;31.00;;;;;;8399885;28;20079;-54
2021/01/24 19:37:42;;;;;;;4.00;2.47;;;16.50;31.00;;;;;;8393915;27;20020;-53
2021/01/24 19:41:42;;;;;;;3.10;1.97;;;16.50;30.90;;;;;;8395289;28;20048;-54
2021/01/24 19:45:43;;;;;;;4.07;2.67;;;16.50;30.90;;;;;;8401966;28;20032;-53
2021/01/24 19:49:43;;;;;;;4.40;2.70;;;16.40;30.80;;;;;;8431455;28;20017;-56
2021/01/24 19:53:44;;;;;;;3.63;2.37;;;16.40;30.90;;;;;;8396806;28;20044;-54
2021/01/24 19:57:44;;;;;;;4.17;2.43;;;16.40;30.80;;;;;;8395280;28;20043;-54
2021/01/24 20:01:45;;;;;;;3.07;2.40;;;16.40;30.90;;;;;;8393130;27;20039;-53
2021/01/24 20:05:45;;;;;;;5.43;3.23;;;16.30;30.80;;;;;;8395035;28;20445;-54
2021/01/24 20:09:46;;;;;;;4.30;2.83;;;16.30;30.80;;;;;;8399036;28;20036;-53
2021/01/24 20:13:46;;;;;;;2.97;2.53;;;16.30;30.90;;;;;;8392802;27;20040;-54
2021/01/24 20:17:47;;;;;;;3.90;2.57;;;16.30;30.90;;;;;;8394853;28;20424;-54
2021/01/24 20:21:48;;;;;;;4.17;2.90;;;16.30;30.90;;;;;;8398781;28;20031;-54
2021/01/24 20:25:48;;;;;;;3.47;2.67;;;16.30;31.00;;;;;;8429840;27;20032;-53
2021/01/24 20:29:50;;;;;;;3.43;2.50;;;16.30;31.00;;;;;;8398743;28;20111;-53
2021/01/24 20:33:51;;;;;;;3.03;2.35;;;16.30;31.00;;;;;;8391852;28;20493;-52
2021/01/24 20:37:52;;;;;;;5.17;2.90;;;16.20;31.00;;;;;;8393051;28;20039;-53
2021/01/24 20:41:53;;;;;;;4.00;3.00;;;16.20;31.00;;;;;;8397601;28;20047;-53
2021/01/24 20:45:54;;;;;;;4.53;3.15;;;16.20;31.00;;;;;;8391581;28;20119;-54
2021/01/24 20:49:54;;;;;;;5.90;2.97;;;16.20;31.10;;;;;;8393304;28;20036;-55
2021/01/24 20:53:55;;;;;;;4.63;3.30;;;16.20;31.10;;;;;;8393139;28;20131;-53
2021/01/24 20:57:56;;;;;;;3.97;3.20;;;16.20;31.10;;;;;;8391075;28;20066;-54